createdAt,value
2023-05-10T00:00:19.719Z,31.56
2023-05-10T00:01:19.746Z,30.13
2023-05-10T00:02:19.930Z,30.02
2023-05-10T00:03:20.210Z,29.77
2023-05-10T00:04:19.936Z,30.15
2023-05-10T00:05:19.982Z,29.36
2023-05-10T00:06:20.037Z,29.80
2023-05-10T00:07:20.066Z,29.60
2023-05-10T00:08:20.162Z,29.29
2023-05-10T00:09:20.223Z,28.66
2023-05-10T00:10:20.257Z,29.90
2023-05-10T00:11:22.261Z,30.84
2023-05-10T00:12:20.277Z,31.38
2023-05-10T00:13:20.352Z,30.21
2023-05-10T00:14:20.301Z,30.67
2023-05-10T00:15:20.274Z,29.76
2023-05-10T00:16:20.311Z,30.67
2023-05-10T00:17:20.238Z,32.00
2023-05-10T00:18:20.264Z,32.35
2023-05-10T00:19:20.234Z,28.90
2023-05-10T00:20:20.218Z,29.87
2023-05-10T00:21:20.229Z,30.61
2023-05-10T00:22:20.238Z,30.37
2023-05-10T00:23:20.656Z,27.99
2023-05-10T00:24:20.203Z,31.27
2023-05-10T00:25:20.209Z,31.14
2023-05-10T00:26:20.204Z,30.18
2023-05-10T00:27:20.209Z,30.18
2023-05-10T00:28:20.182Z,30.45
2023-05-10T00:29:20.183Z,31.01
2023-05-10T00:30:20.153Z,31.28
2023-05-10T00:31:20.156Z,30.83
2023-05-10T00:32:20.277Z,31.31
2023-05-10T00:33:20.140Z,33.13
2023-05-10T00:34:20.174Z,31.32
2023-05-10T00:35:20.119Z,35.16
2023-05-10T00:36:20.163Z,32.21
2023-05-10T00:37:20.135Z,34.28
2023-05-10T00:38:20.115Z,30.91
2023-05-10T00:39:20.092Z,30.71
2023-05-10T00:40:20.128Z,30.80
2023-05-10T00:41:20.083Z,33.44
2023-05-10T00:42:20.101Z,27.85
2023-05-10T00:43:20.101Z,30.38
2023-05-10T00:44:20.063Z,34.50
2023-05-10T00:45:20.104Z,34.20
2023-05-10T00:46:20.124Z,30.78
2023-05-10T00:47:20.141Z,31.19
2023-05-10T00:48:20.070Z,33.93
2023-05-10T00:49:20.043Z,33.58
2023-05-10T00:50:20.087Z,33.87
2023-05-10T00:51:20.087Z,34.08
2023-05-10T00:52:20.148Z,33.67
2023-05-10T00:53:20.656Z,33.82
2023-05-10T00:54:20.260Z,32.80
2023-05-10T00:55:20.320Z,33.19
2023-05-10T00:56:20.377Z,32.01
2023-05-10T00:57:20.431Z,31.22
2023-05-10T00:58:20.470Z,32.16
2023-05-10T00:59:20.547Z,32.94
2023-05-10T01:00:20.592Z,31.94
2023-05-10T01:01:20.677Z,34.71
2023-05-10T01:02:20.744Z,34.28
2023-05-10T01:03:20.867Z,32.15
2023-05-10T01:04:20.845Z,32.25
2023-05-10T01:05:20.920Z,31.97
2023-05-10T01:06:20.935Z,33.04
2023-05-10T01:07:21.001Z,30.96
2023-05-10T01:08:21.060Z,32.33
2023-05-10T01:09:21.122Z,31.08
2023-05-10T01:10:21.158Z,33.50
2023-05-10T01:11:21.244Z,32.10
2023-05-10T01:12:21.307Z,33.13
2023-05-10T01:13:21.466Z,34.35
2023-05-10T01:14:21.433Z,32.15
2023-05-10T01:15:21.472Z,31.88
2023-05-10T01:16:21.542Z,33.90
2023-05-10T01:17:21.619Z,32.14
2023-05-10T01:18:21.673Z,33.45
2023-05-10T01:19:21.726Z,33.33
2023-05-10T01:20:21.788Z,33.03
2023-05-10T01:21:21.866Z,33.01
2023-05-10T01:22:21.914Z,33.33
2023-05-10T01:23:22.189Z,31.42
2023-05-10T01:24:22.069Z,32.93
2023-05-10T01:25:22.097Z,34.02
2023-05-10T01:26:22.150Z,34.33
2023-05-10T01:27:22.212Z,32.57
2023-05-10T01:28:22.662Z,31.60
2023-05-10T01:29:22.368Z,32.31
2023-05-10T01:30:22.558Z,33.08
2023-05-10T01:31:22.508Z,33.61
2023-05-10T01:32:22.523Z,33.89
2023-05-10T01:33:22.604Z,32.96
2023-05-10T01:34:22.667Z,32.06
2023-05-10T01:35:22.717Z,31.78
2023-05-10T01:36:22.769Z,35.58
2023-05-10T01:37:22.839Z,32.19
2023-05-10T01:38:22.897Z,34.45
2023-05-10T01:39:23.165Z,33.72
2023-05-10T01:40:23.008Z,32.97
2023-05-10T01:41:23.083Z,32.35
2023-05-10T01:42:23.156Z,34.22
2023-05-10T01:43:23.186Z,35.82
2023-05-10T01:44:23.737Z,33.90
2023-05-10T01:45:23.320Z,32.28
2023-05-10T01:46:23.437Z,32.55
2023-05-10T01:47:23.478Z,33.87
2023-05-10T01:48:23.509Z,35.07
2023-05-10T01:49:23.552Z,31.18
2023-05-10T01:50:23.634Z,34.30
2023-05-10T01:51:23.681Z,34.50
2023-05-10T01:52:23.752Z,33.50
2023-05-10T01:53:23.817Z,34.24
2023-05-10T01:54:23.914Z,34.56
2023-05-10T01:55:23.923Z,31.30
2023-05-10T01:56:24.006Z,33.29
2023-05-10T01:57:24.065Z,32.42
2023-05-10T01:58:24.079Z,32.15
2023-05-10T01:59:24.170Z,32.95
2023-05-10T02:00:24.240Z,35.78
2023-05-10T02:01:24.332Z,33.16
2023-05-10T02:02:24.425Z,34.44
2023-05-10T02:03:24.501Z,36.42
2023-05-10T02:04:24.672Z,35.45
2023-05-10T02:05:24.567Z,31.68
2023-05-10T02:06:24.621Z,34.81
2023-05-10T02:07:24.681Z,34.88
2023-05-10T02:08:24.723Z,34.26
2023-05-10T02:09:25.206Z,34.39
2023-05-10T02:10:24.872Z,36.13
2023-05-10T02:11:24.895Z,34.72
2023-05-10T02:12:24.983Z,34.21
2023-05-10T02:13:25.057Z,34.94
2023-05-10T02:14:25.119Z,33.94
2023-05-10T02:15:25.167Z,34.58
2023-05-10T02:16:25.268Z,33.50
2023-05-10T02:17:25.330Z,33.20
2023-05-10T02:18:25.333Z,33.10
2023-05-10T02:19:25.720Z,35.33
2023-05-10T02:20:26.187Z,34.60
2023-05-10T02:21:25.520Z,32.48
2023-05-10T02:22:25.592Z,30.97
2023-05-10T02:23:25.681Z,34.17
2023-05-10T02:24:26.175Z,34.02
2023-05-10T02:25:25.816Z,32.41
2023-05-10T02:26:25.846Z,31.36
2023-05-10T02:27:25.944Z,32.20
2023-05-10T02:28:26.037Z,32.41
2023-05-10T02:29:26.036Z,34.35
2023-05-10T02:30:26.108Z,34.87
2023-05-10T02:31:26.172Z,33.39
2023-05-10T02:32:26.239Z,34.61
2023-05-10T02:33:26.254Z,34.87
2023-05-10T02:34:26.705Z,34.13
2023-05-10T02:35:26.367Z,33.84
2023-05-10T02:36:26.449Z,35.90
2023-05-10T02:37:27.203Z,33.72
2023-05-10T02:38:26.550Z,32.73
2023-05-10T02:39:26.603Z,33.51
2023-05-10T02:40:28.621Z,30.44
2023-05-10T02:41:26.748Z,32.58
2023-05-10T02:42:26.840Z,37.29
2023-05-10T02:43:26.864Z,34.00
2023-05-10T02:44:27.191Z,32.41
2023-05-10T02:45:26.981Z,35.04
2023-05-10T02:46:27.111Z,32.98
2023-05-10T02:47:27.142Z,31.23
2023-05-10T02:48:27.150Z,34.31
2023-05-10T02:49:27.733Z,34.62
2023-05-10T02:50:27.289Z,35.15
2023-05-10T02:51:27.381Z,34.83
2023-05-10T02:52:27.431Z,35.05
2023-05-10T02:53:27.500Z,35.81
2023-05-10T02:54:27.696Z,30.69
2023-05-10T02:55:27.612Z,32.93
2023-05-10T02:56:27.654Z,34.17
2023-05-10T02:57:27.737Z,34.38
2023-05-10T02:58:27.796Z,34.26
2023-05-10T02:59:28.208Z,33.93
2023-05-10T03:00:27.909Z,33.74
2023-05-10T03:01:27.975Z,32.69
2023-05-10T03:02:28.085Z,32.52
2023-05-10T03:03:28.070Z,31.97
2023-05-10T03:04:28.301Z,34.58
2023-05-10T03:05:28.273Z,31.59
2023-05-10T03:06:28.262Z,31.14
2023-05-10T03:07:28.296Z,35.18
2023-05-10T03:08:28.357Z,33.73
2023-05-10T03:09:28.688Z,33.62
2023-05-10T03:10:28.540Z,31.42
2023-05-10T03:11:28.566Z,33.03
2023-05-10T03:12:28.670Z,30.51
2023-05-10T03:13:28.779Z,33.12
2023-05-10T03:14:29.208Z,32.56
2023-05-10T03:15:28.808Z,34.69
2023-05-10T03:16:28.945Z,33.38
2023-05-10T03:17:28.978Z,33.03
2023-05-10T03:18:29.021Z,33.60
2023-05-10T03:19:29.215Z,31.08
2023-05-10T03:20:29.124Z,34.09
2023-05-10T03:21:29.192Z,33.18
2023-05-10T03:22:29.253Z,33.74
2023-05-10T03:23:29.307Z,32.85
2023-05-10T03:24:29.446Z,34.63
2023-05-10T03:25:29.416Z,32.20
2023-05-10T03:26:29.524Z,33.89
2023-05-10T03:27:29.556Z,34.02
2023-05-10T03:28:29.583Z,33.10
2023-05-10T03:29:29.698Z,32.98
2023-05-10T03:30:29.711Z,32.57
2023-05-10T03:31:29.792Z,31.88
2023-05-10T03:32:29.855Z,35.20
2023-05-10T03:33:29.884Z,31.51
2023-05-10T03:34:30.237Z,31.34
2023-05-10T03:35:29.987Z,32.59
2023-05-10T03:36:30.001Z,32.42
2023-05-10T03:37:30.057Z,33.49
2023-05-10T03:38:30.660Z,32.06
2023-05-10T03:39:30.179Z,33.96
2023-05-10T03:40:30.258Z,32.30
2023-05-10T03:41:30.281Z,32.41
2023-05-10T03:42:30.362Z,33.39
2023-05-10T03:43:30.393Z,35.17
2023-05-10T03:44:30.440Z,32.82
2023-05-10T03:45:30.518Z,33.74
2023-05-10T03:46:30.586Z,35.23
2023-05-10T03:47:30.747Z,32.80
2023-05-10T03:48:30.695Z,31.89
2023-05-10T03:49:30.740Z,30.40
2023-05-10T03:50:30.749Z,34.15
2023-05-10T03:51:30.832Z,33.00
2023-05-10T03:52:30.892Z,31.96
2023-05-10T03:53:30.951Z,29.59
2023-05-10T03:54:31.210Z,30.30
2023-05-10T03:55:31.024Z,33.52
2023-05-10T03:56:31.071Z,30.83
2023-05-10T03:57:31.149Z,31.58
2023-05-10T03:58:31.184Z,30.80
2023-05-10T03:59:31.225Z,33.19
2023-05-10T04:00:31.305Z,30.53
2023-05-10T04:01:31.365Z,30.93
2023-05-10T04:02:31.595Z,31.20
2023-05-10T04:03:31.542Z,31.93
2023-05-10T04:04:31.516Z,31.42
2023-05-10T04:05:31.583Z,34.45
2023-05-10T04:06:31.697Z,34.79
2023-05-10T04:07:31.715Z,33.35
2023-05-10T04:08:31.772Z,31.03
2023-05-10T04:09:31.812Z,33.13
2023-05-10T04:10:31.850Z,30.55
2023-05-10T04:11:31.936Z,32.82
2023-05-10T04:12:32.008Z,33.21
2023-05-10T04:13:32.051Z,32.17
2023-05-10T04:14:32.116Z,30.65
2023-05-10T04:15:32.159Z,33.42
2023-05-10T04:16:32.218Z,32.04
2023-05-10T04:17:32.319Z,29.94
2023-05-10T04:18:32.334Z,33.46
2023-05-10T04:19:32.345Z,34.18
2023-05-10T04:20:32.424Z,30.87
2023-05-10T04:21:32.482Z,32.25
2023-05-10T04:22:32.516Z,32.95
2023-05-10T04:23:32.601Z,32.10
2023-05-10T04:24:32.731Z,30.95
2023-05-10T04:25:32.665Z,31.88
2023-05-10T04:26:32.756Z,27.76
2023-05-10T04:27:32.811Z,30.15
2023-05-10T04:28:32.877Z,32.20
2023-05-10T04:29:32.949Z,33.83
2023-05-10T04:30:33.016Z,31.75
2023-05-10T04:31:33.049Z,30.75
2023-05-10T04:32:33.121Z,31.70
2023-05-10T04:33:33.130Z,32.80
2023-05-10T04:34:33.275Z,32.39
2023-05-10T04:35:33.269Z,29.24
2023-05-10T04:36:33.333Z,32.61
2023-05-10T04:37:33.431Z,31.19
2023-05-10T04:38:33.419Z,30.19
2023-05-10T04:39:33.475Z,32.06
2023-05-10T04:40:33.542Z,29.42
2023-05-10T04:41:33.572Z,31.19
2023-05-10T04:42:33.647Z,32.88
2023-05-10T04:43:33.694Z,31.27
2023-05-10T04:44:34.237Z,31.70
2023-05-10T04:45:33.798Z,31.80
2023-05-10T04:46:33.918Z,32.44
2023-05-10T04:47:33.949Z,32.96
2023-05-10T04:48:33.962Z,31.64
2023-05-10T04:49:34.241Z,31.48
2023-05-10T04:50:34.087Z,31.08
2023-05-10T04:51:34.157Z,32.10
2023-05-10T04:52:34.197Z,32.79
2023-05-10T04:53:34.276Z,32.45
2023-05-10T04:54:34.274Z,32.50
2023-05-10T04:55:34.326Z,33.07
2023-05-10T04:56:34.471Z,29.85
2023-05-10T04:57:34.445Z,30.88
2023-05-10T04:58:34.471Z,33.21
2023-05-10T04:59:34.561Z,32.80
2023-05-10T05:00:34.587Z,31.64
2023-05-10T05:01:34.768Z,32.11
2023-05-10T05:02:34.767Z,32.41
2023-05-10T05:03:34.866Z,30.97
2023-05-10T05:04:35.287Z,28.80
2023-05-10T05:05:34.860Z,31.90
2023-05-10T05:06:34.964Z,30.10
2023-05-10T05:07:35.079Z,30.25
2023-05-10T05:08:35.073Z,29.10
2023-05-10T05:09:35.097Z,29.56
2023-05-10T05:10:35.141Z,30.21
2023-05-10T05:11:35.197Z,30.72
2023-05-10T05:12:35.274Z,30.15
2023-05-10T05:13:35.314Z,32.21
2023-05-10T05:14:35.386Z,28.13
2023-05-10T05:15:35.443Z,30.08
2023-05-10T05:16:35.614Z,30.84
2023-05-10T05:17:35.528Z,29.84
2023-05-10T05:18:35.567Z,32.24
2023-05-10T05:19:35.631Z,29.78
2023-05-10T05:20:35.699Z,29.18
2023-05-10T05:21:35.722Z,32.29
2023-05-10T05:22:35.776Z,33.03
2023-05-10T05:23:35.891Z,32.66
2023-05-10T05:24:35.893Z,33.81
2023-05-10T05:25:36.037Z,33.68
2023-05-10T05:26:36.025Z,31.36
2023-05-10T05:27:36.085Z,33.57
2023-05-10T05:28:36.145Z,29.16
2023-05-10T05:29:36.241Z,33.34
2023-05-10T05:30:36.281Z,32.34
2023-05-10T05:31:36.373Z,31.09
2023-05-10T05:32:36.377Z,29.51
2023-05-10T05:33:36.426Z,30.05
2023-05-10T05:34:36.513Z,31.56
2023-05-10T05:35:36.554Z,27.72
2023-05-10T05:36:37.699Z,30.75
2023-05-10T05:37:36.686Z,33.26
2023-05-10T05:38:36.712Z,30.39
2023-05-10T05:39:36.800Z,30.32
2023-05-10T05:40:36.819Z,29.16
2023-05-10T05:41:36.921Z,30.48
2023-05-10T05:42:36.941Z,31.25
2023-05-10T05:43:38.343Z,29.89
2023-05-10T05:44:37.264Z,31.10
2023-05-10T05:45:37.126Z,31.20
2023-05-10T05:46:37.128Z,32.22
2023-05-10T05:47:37.247Z,30.74
2023-05-10T05:48:38.262Z,31.91
2023-05-10T05:49:37.771Z,27.76
2023-05-10T05:50:37.417Z,30.34
2023-05-10T05:51:37.442Z,28.16
2023-05-10T05:52:37.491Z,30.25
2023-05-10T05:53:37.550Z,29.02
2023-05-10T05:54:37.789Z,26.73
2023-05-10T05:55:37.655Z,29.42
2023-05-10T05:56:37.734Z,30.71
2023-05-10T05:57:37.807Z,30.29
2023-05-10T05:58:37.855Z,31.65
2023-05-10T05:59:38.265Z,32.54
2023-05-10T06:00:37.942Z,31.29
2023-05-10T06:01:38.034Z,29.76
2023-05-10T06:02:38.219Z,34.90
2023-05-10T06:03:38.175Z,35.37
2023-05-10T06:04:38.266Z,34.71
2023-05-10T06:05:38.235Z,36.00
2023-05-10T06:06:38.299Z,36.48
2023-05-10T06:07:38.374Z,34.65
2023-05-10T06:08:38.420Z,35.94
2023-05-10T06:09:38.469Z,36.11
2023-05-10T06:10:38.521Z,38.30
2023-05-10T06:11:38.684Z,41.44
2023-05-10T06:12:38.619Z,42.42
2023-05-10T06:13:38.704Z,47.74
2023-05-10T06:14:38.753Z,46.51
2023-05-10T06:15:38.815Z,45.17
2023-05-10T06:16:38.956Z,45.71
2023-05-10T06:17:38.990Z,48.72
2023-05-10T06:18:39.016Z,49.68
2023-05-10T06:19:39.066Z,48.48
2023-05-10T06:20:39.121Z,49.71
2023-05-10T06:21:39.140Z,47.87
2023-05-10T06:22:39.225Z,52.96
2023-05-10T06:23:39.249Z,53.31
2023-05-10T06:24:39.777Z,50.03
2023-05-10T06:25:39.416Z,53.22
2023-05-10T06:26:39.461Z,53.84
2023-05-10T06:27:39.420Z,55.93
2023-05-10T06:28:39.498Z,57.98
2023-05-10T06:29:39.536Z,56.92
2023-05-10T06:30:39.585Z,57.92
2023-05-10T06:31:39.670Z,56.27
2023-05-10T06:32:39.753Z,56.15
2023-05-10T06:33:39.714Z,58.24
2023-05-10T06:34:39.781Z,59.10
2023-05-10T06:35:39.807Z,59.46
2023-05-10T06:36:39.861Z,60.08
2023-05-10T06:37:39.908Z,61.38
2023-05-10T06:38:39.935Z,62.09
2023-05-10T06:39:40.017Z,63.16
2023-05-10T06:40:40.048Z,63.07
2023-05-10T06:41:40.135Z,63.29
2023-05-10T06:42:40.154Z,64.83
2023-05-10T06:43:40.173Z,64.01
2023-05-10T06:44:40.223Z,66.97
2023-05-10T06:45:40.254Z,67.72
2023-05-10T06:46:40.346Z,66.35
2023-05-10T06:47:40.348Z,64.92
2023-05-10T06:48:40.383Z,67.17
2023-05-10T06:49:40.425Z,65.89
2023-05-10T06:50:40.470Z,68.96
2023-05-10T06:51:40.510Z,67.99
2023-05-10T06:52:40.537Z,70.03
2023-05-10T06:53:40.559Z,70.31
2023-05-10T06:54:40.799Z,71.75
2023-05-10T06:55:40.640Z,70.00
2023-05-10T06:56:40.719Z,72.90
2023-05-10T06:57:40.732Z,73.91
2023-05-10T06:58:40.908Z,73.32
2023-05-10T06:59:40.884Z,73.01
2023-05-10T07:00:40.896Z,74.49
2023-05-10T07:01:40.936Z,74.51
2023-05-10T07:02:40.952Z,74.43
2023-05-10T07:03:40.983Z,75.63
2023-05-10T07:04:41.074Z,74.72
2023-05-10T07:05:41.144Z,76.13
2023-05-10T07:06:41.075Z,79.08
2023-05-10T07:07:41.138Z,79.79
2023-05-10T07:08:41.158Z,79.31
2023-05-10T07:09:41.320Z,79.21
2023-05-10T07:10:41.227Z,79.85
2023-05-10T07:11:41.261Z,77.71
2023-05-10T07:12:41.327Z,78.74
2023-05-10T07:13:41.347Z,79.13
2023-05-10T07:14:41.357Z,81.16
2023-05-10T07:15:41.366Z,79.97
2023-05-10T07:16:41.449Z,79.97
2023-05-10T07:17:43.261Z,80.98
2023-05-10T07:18:41.446Z,84.97
2023-05-10T07:19:41.421Z,85.20
2023-05-10T07:20:41.422Z,85.04
2023-05-10T07:21:41.391Z,84.08
2023-05-10T07:22:41.409Z,83.84
2023-05-10T07:23:42.944Z,86.50
2023-05-10T07:24:41.793Z,86.69
2023-05-10T07:25:41.377Z,86.95
2023-05-10T07:26:41.386Z,86.91
2023-05-10T07:27:41.349Z,84.70
2023-05-10T07:28:41.370Z,88.74
2023-05-10T07:29:41.341Z,85.96
2023-05-10T07:30:41.330Z,86.21
2023-05-10T07:31:41.414Z,84.87
2023-05-10T07:32:41.337Z,81.42
2023-05-10T07:33:41.327Z,78.39
2023-05-10T07:34:41.330Z,79.37
2023-05-10T07:35:41.301Z,79.32
2023-05-10T07:36:41.322Z,79.67
2023-05-10T07:37:41.304Z,77.83
2023-05-10T07:38:41.276Z,79.98
2023-05-10T07:39:41.284Z,80.58
2023-05-10T07:40:41.296Z,83.62
2023-05-10T07:41:41.266Z,84.55
2023-05-10T07:42:41.252Z,87.19
2023-05-10T07:43:41.245Z,85.37
2023-05-10T07:44:41.296Z,88.90
2023-05-10T07:45:41.244Z,87.35
2023-05-10T07:46:41.362Z,86.89
2023-05-10T07:47:41.259Z,86.63
2023-05-10T07:48:41.206Z,87.77
2023-05-10T07:49:41.298Z,87.19
2023-05-10T07:50:41.218Z,88.71
2023-05-10T07:51:41.262Z,89.67
2023-05-10T07:52:41.178Z,91.07
2023-05-10T07:53:41.178Z,90.23
2023-05-10T07:54:41.197Z,90.32
2023-05-10T07:55:41.177Z,89.85
2023-05-10T07:56:41.200Z,91.10
2023-05-10T07:57:41.192Z,89.78
2023-05-10T07:58:41.149Z,92.91
2023-05-10T07:59:41.405Z,90.37
2023-05-10T08:00:41.140Z,90.13
2023-05-10T08:01:41.137Z,91.08
2023-05-10T08:02:41.278Z,90.84
2023-05-10T08:03:41.320Z,91.67
2023-05-10T08:04:41.331Z,91.56
2023-05-10T08:05:41.113Z,91.29
2023-05-10T08:06:41.215Z,93.50
2023-05-10T08:07:41.082Z,92.27
2023-05-10T08:08:41.098Z,91.49
2023-05-10T08:09:41.316Z,92.64
2023-05-10T08:10:41.078Z,94.49
2023-05-10T08:11:41.082Z,88.43
2023-05-10T08:12:41.080Z,91.15
2023-05-10T08:13:41.051Z,89.85
2023-05-10T08:14:41.322Z,90.79
2023-05-10T08:15:41.084Z,86.30
2023-05-10T08:16:41.019Z,85.06
2023-05-10T08:17:41.049Z,84.24
2023-05-10T08:18:41.227Z,82.49
2023-05-10T08:19:41.017Z,84.66
2023-05-10T08:20:41.310Z,85.98
2023-05-10T08:21:41.014Z,85.36
2023-05-10T08:22:41.014Z,84.79
2023-05-10T08:23:41.064Z,87.16
2023-05-10T08:24:40.985Z,88.70
2023-05-10T08:25:41.294Z,88.96
2023-05-10T08:26:40.965Z,89.64
2023-05-10T08:27:40.992Z,90.63
2023-05-10T08:28:41.019Z,90.77
2023-05-10T08:29:49.473Z,92.91
2023-05-10T08:30:42.326Z,93.11
2023-05-10T08:31:41.092Z,93.12
2023-05-10T08:32:41.110Z,93.26
2023-05-10T08:33:42.301Z,93.18
2023-05-10T08:34:41.021Z,96.57
2023-05-10T08:35:41.298Z,93.94
2023-05-10T08:36:41.007Z,92.08
2023-05-10T08:37:41.012Z,92.70
2023-05-10T08:38:41.024Z,91.35
2023-05-10T08:39:41.050Z,91.21
2023-05-10T08:40:40.965Z,90.16
2023-05-10T08:41:40.984Z,92.45
2023-05-10T08:42:40.939Z,94.55
2023-05-10T08:43:40.954Z,95.17
2023-05-10T08:44:40.960Z,95.22
2023-05-10T08:45:40.980Z,97.55
2023-05-10T08:46:41.031Z,96.88
2023-05-10T08:47:40.944Z,97.81
2023-05-10T08:48:40.921Z,98.85
2023-05-10T08:49:40.927Z,99.55
2023-05-10T08:50:40.908Z,100.17
2023-05-10T08:51:41.786Z,100.03
2023-05-10T08:52:40.905Z,101.36
2023-05-10T08:53:40.884Z,99.96
2023-05-10T08:54:40.915Z,100.42
2023-05-10T08:55:40.881Z,99.97
2023-05-10T08:56:40.851Z,100.72
2023-05-10T08:57:40.911Z,102.47
2023-05-10T08:58:40.891Z,102.18
2023-05-10T08:59:40.858Z,103.19
2023-05-10T09:00:40.855Z,102.91
2023-05-10T09:01:40.881Z,102.74
2023-05-10T09:02:40.886Z,100.20
2023-05-10T09:03:40.866Z,95.44
2023-05-10T09:04:40.891Z,89.39
2023-05-10T09:05:40.828Z,90.77
2023-05-10T09:06:40.946Z,91.57
2023-05-10T09:07:40.807Z,89.04
2023-05-10T09:08:40.774Z,90.60
2023-05-10T09:09:40.797Z,88.50
2023-05-10T09:10:40.807Z,90.72
2023-05-10T09:11:40.777Z,90.63
2023-05-10T09:12:40.788Z,90.82
2023-05-10T09:13:41.346Z,92.26
2023-05-10T09:14:40.784Z,94.65
2023-05-10T09:15:40.850Z,94.97
2023-05-10T09:16:40.759Z,94.08
2023-05-10T09:17:40.860Z,95.73
2023-05-10T09:18:40.768Z,95.48
2023-05-10T09:19:40.770Z,96.34
2023-05-10T09:20:40.802Z,96.48
2023-05-10T09:21:40.845Z,97.64
2023-05-10T09:22:40.868Z,99.49
2023-05-10T09:23:40.873Z,99.92
2023-05-10T09:24:40.866Z,99.29
2023-05-10T09:25:40.901Z,100.05
2023-05-10T09:26:40.884Z,99.71
2023-05-10T09:27:40.946Z,100.83
2023-05-10T09:28:40.993Z,99.58
2023-05-10T09:29:41.013Z,98.82
2023-05-10T09:30:41.050Z,100.39
2023-05-10T09:31:41.028Z,102.92
2023-05-10T09:32:41.057Z,102.06
2023-05-10T09:33:41.045Z,101.79
2023-05-10T09:34:41.116Z,102.24
2023-05-10T09:35:41.359Z,102.34
2023-05-10T09:36:41.102Z,101.64
2023-05-10T09:37:41.118Z,102.56
2023-05-10T09:38:41.138Z,103.35
2023-05-10T09:39:41.149Z,105.18
2023-05-10T09:40:41.359Z,105.95
2023-05-10T09:41:41.194Z,105.75
2023-05-10T09:42:41.194Z,105.69
2023-05-10T09:43:41.253Z,106.20
2023-05-10T09:44:41.235Z,105.18
2023-05-10T09:45:41.348Z,105.30
2023-05-10T09:46:41.334Z,105.38
2023-05-10T09:47:41.322Z,107.67
2023-05-10T09:48:41.306Z,106.99
2023-05-10T09:49:41.338Z,109.21
2023-05-10T09:50:41.369Z,109.87
2023-05-10T09:51:41.335Z,107.62
2023-05-10T09:52:41.368Z,110.56
2023-05-10T09:53:41.387Z,108.92
2023-05-10T09:54:41.405Z,111.16
2023-05-10T09:55:41.889Z,108.99
2023-05-10T09:56:41.462Z,109.03
2023-05-10T09:57:41.412Z,109.72
2023-05-10T09:58:41.451Z,111.43
2023-05-10T09:59:41.439Z,111.08
2023-05-10T10:00:41.442Z,112.56
2023-05-10T10:01:41.677Z,113.25
2023-05-10T10:02:41.507Z,107.96
2023-05-10T10:03:41.460Z,109.36
2023-05-10T10:04:41.562Z,113.42
2023-05-10T10:05:41.493Z,109.65
2023-05-10T10:06:41.507Z,112.63
2023-05-10T10:07:41.516Z,111.88
2023-05-10T10:08:41.513Z,113.54
2023-05-10T10:09:41.553Z,111.38
2023-05-10T10:10:41.657Z,111.85
2023-05-10T10:11:41.581Z,111.60
2023-05-10T10:12:41.583Z,113.53
2023-05-10T10:13:41.590Z,106.87
2023-05-10T10:14:41.587Z,111.55
2023-05-10T10:15:41.869Z,111.09
2023-05-10T10:16:55.522Z,111.93
2023-05-10T10:17:42.692Z,112.23
2023-05-10T10:18:41.672Z,112.56
2023-05-10T10:19:41.623Z,113.33
2023-05-10T10:20:41.855Z,113.19
2023-05-10T10:21:41.606Z,115.40
2023-05-10T10:22:41.612Z,115.36
2023-05-10T10:23:41.596Z,114.75
2023-05-10T10:24:42.576Z,115.05
2023-05-10T10:25:41.872Z,115.22
2023-05-10T10:26:41.540Z,115.90
2023-05-10T10:27:41.572Z,117.91
2023-05-10T10:28:41.559Z,117.42
2023-05-10T10:29:41.535Z,115.10
2023-05-10T10:30:41.904Z,117.03
2023-05-10T10:31:41.591Z,115.29
2023-05-10T10:32:41.536Z,115.11
2023-05-10T10:33:41.522Z,116.63
2023-05-10T10:34:41.512Z,118.58
2023-05-10T10:35:41.493Z,114.84
2023-05-10T10:36:41.492Z,116.82
2023-05-10T10:37:41.461Z,115.70
2023-05-10T10:38:41.459Z,116.11
2023-05-10T10:39:41.483Z,115.77
2023-05-10T10:40:41.859Z,117.45
2023-05-10T10:41:41.444Z,118.11
2023-05-10T10:42:41.457Z,116.48
2023-05-10T10:43:41.469Z,119.95
2023-05-10T10:44:41.442Z,121.42
2023-05-10T10:45:42.166Z,117.48
2023-05-10T10:46:41.426Z,121.67
2023-05-10T10:47:41.440Z,120.37
2023-05-10T10:48:41.403Z,123.37
2023-05-10T10:49:41.400Z,122.86
2023-05-10T10:50:41.896Z,121.84
2023-05-10T10:51:41.464Z,120.80
2023-05-10T10:52:41.397Z,122.43
2023-05-10T10:53:41.409Z,119.22
2023-05-10T10:54:41.382Z,122.61
2023-05-10T10:55:41.413Z,123.74
2023-05-10T10:56:41.361Z,125.85
2023-05-10T10:57:41.401Z,126.99
2023-05-10T10:58:41.508Z,125.39
2023-05-10T10:59:41.352Z,126.70
2023-05-10T11:00:41.368Z,126.42
2023-05-10T11:01:41.430Z,129.14
2023-05-10T11:02:41.339Z,128.82
2023-05-10T11:03:41.321Z,125.77
2023-05-10T11:04:41.449Z,123.70
2023-05-10T11:05:41.328Z,128.19
2023-05-10T11:06:41.322Z,129.83
2023-05-10T11:07:41.307Z,125.90
2023-05-10T11:08:41.303Z,124.99
2023-05-10T11:09:41.293Z,123.74
2023-05-10T11:10:41.342Z,119.99
2023-05-10T11:11:41.388Z,120.81
2023-05-10T11:12:41.330Z,123.79
2023-05-10T11:13:41.317Z,122.78
2023-05-10T11:14:41.347Z,124.20
2023-05-10T11:15:41.356Z,125.81
2023-05-10T11:16:41.384Z,124.13
2023-05-10T11:17:41.404Z,121.04
2023-05-10T11:18:41.413Z,120.56
2023-05-10T11:19:41.385Z,120.02
2023-05-10T11:20:41.453Z,117.84
2023-05-10T11:21:41.885Z,115.29
2023-05-10T11:22:41.403Z,111.82
2023-05-10T11:23:41.431Z,111.18
2023-05-10T11:24:41.445Z,112.08
2023-05-10T11:25:41.477Z,110.76
2023-05-10T11:26:41.860Z,112.37
2023-05-10T11:27:41.539Z,112.23
2023-05-10T11:28:41.554Z,109.92
2023-05-10T11:29:41.593Z,110.96
2023-05-10T11:30:41.688Z,108.32
2023-05-10T11:31:41.888Z,109.01
2023-05-10T11:32:41.688Z,107.81
2023-05-10T11:33:41.681Z,107.85
2023-05-10T11:34:41.712Z,108.07
2023-05-10T11:35:43.396Z,109.34
2023-05-10T11:36:41.912Z,109.35
2023-05-10T11:37:41.777Z,108.72
2023-05-10T11:38:41.790Z,108.41
2023-05-10T11:39:41.846Z,108.64
2023-05-10T11:40:41.918Z,111.58
2023-05-10T11:41:42.971Z,110.16
2023-05-10T11:42:41.892Z,110.37
2023-05-10T11:43:41.970Z,110.52
2023-05-10T11:44:41.950Z,111.98
2023-05-10T11:45:41.980Z,111.37
2023-05-10T11:46:42.477Z,111.99
2023-05-10T11:47:42.771Z,109.30
2023-05-10T11:48:42.091Z,110.57
2023-05-10T11:49:42.074Z,112.06
2023-05-10T11:50:42.089Z,109.42
2023-05-10T11:51:42.408Z,111.59
2023-05-10T11:52:42.125Z,110.35
2023-05-10T11:53:42.180Z,110.70
2023-05-10T11:54:42.163Z,112.11
2023-05-10T11:55:42.213Z,110.39
2023-05-10T11:56:42.389Z,110.35
2023-05-10T11:57:42.276Z,110.23
2023-05-10T11:58:42.326Z,109.52
2023-05-10T11:59:43.204Z,111.08
2023-05-10T12:00:42.389Z,108.75
2023-05-10T12:01:42.362Z,109.83
2023-05-10T12:02:42.487Z,108.85
2023-05-10T12:03:42.598Z,108.10
2023-05-10T12:04:42.562Z,110.27
2023-05-10T12:05:43.051Z,109.80
2023-05-10T12:06:42.963Z,109.99
2023-05-10T12:07:42.580Z,107.79
2023-05-10T12:08:42.623Z,107.98
2023-05-10T12:09:44.199Z,105.96
2023-05-10T12:10:42.698Z,107.32
2023-05-10T12:11:43.959Z,107.67
2023-05-10T12:12:42.836Z,104.99
2023-05-10T12:13:42.810Z,105.84
2023-05-10T12:14:42.841Z,109.13
2023-05-10T12:15:42.906Z,107.09
2023-05-10T12:16:43.009Z,105.41
2023-05-10T12:17:43.553Z,105.70
2023-05-10T12:18:43.075Z,104.46
2023-05-10T12:19:43.061Z,107.46
2023-05-10T12:20:43.107Z,107.64
2023-05-10T12:21:43.392Z,104.47
2023-05-10T12:22:43.256Z,104.45
2023-05-10T12:23:43.233Z,103.61
2023-05-10T12:24:43.299Z,103.70
2023-05-10T12:25:43.342Z,102.99
2023-05-10T12:26:43.362Z,104.40
2023-05-10T12:27:43.417Z,100.46
2023-05-10T12:28:43.466Z,103.08
2023-05-10T12:29:43.482Z,104.12
2023-05-10T12:30:43.533Z,102.35
2023-05-10T12:31:43.958Z,102.33
2023-05-10T12:32:43.650Z,102.33
2023-05-10T12:33:43.624Z,102.57
2023-05-10T12:34:43.687Z,102.38
2023-05-10T12:35:43.704Z,103.32
2023-05-10T12:36:43.902Z,101.93
2023-05-10T12:37:43.822Z,103.68
2023-05-10T12:38:43.831Z,102.61
2023-05-10T12:39:43.977Z,99.89
2023-05-10T12:40:43.951Z,100.81
2023-05-10T12:41:43.962Z,100.32
2023-05-10T12:42:44.018Z,100.52
2023-05-10T12:43:44.057Z,99.89
2023-05-10T12:44:44.145Z,98.24
2023-05-10T12:45:44.199Z,100.50
2023-05-10T12:46:44.191Z,99.13